Aérodrome :
LOGIN :

S'inscrire | Disclaimer

   EN    FR    IT 

 










Légende :    VFR   VFR Marginal   IFR   IFR Intensif   IFR Très Intensif
Visi : 
Plafond : 
>= 8 km
>= 3000ft
5 à 8 km
1000 à 3000 ft
1500m à 5 km
500 à 1000 ft
800 à 1500m
200 à 500 ft
< 800m
< 200 ft
Symboles :   Orages  Brouillard  Fortes neiges  Fortes précipitations  Vent > 20 kt
SIGMETs :   Divers  Orages  Givrage  Turbulence  Onde Orograph.  Cendres Volcan.






- Altitude de l'aérodrome : 274 ft
- Code IATA : PUY


LDPL - Pula

DERNIER METAR :
  • 231730Z VRB02KT CAVOK 21/15 Q1016 NOSIG

METARs EXPIRÉS :
  • 231700Z 23003KT CAVOK 20/14 Q1016 NOSIG
  • 231630Z 21004KT 180V250 CAVOK 20/14 Q1015 NOSIG
  • 231600Z 21004KT 180V250 CAVOK 21/13 Q1015 NOSIG
  • 231530Z 20003KT 100V250 CAVOK 23/12 Q1015 NOSIG
  • 231500Z 22005KT 170V270 CAVOK 23/13 Q1015 NOSIG
  • 231430Z 22004KT 170V290 CAVOK 23/12 Q1016 NOSIG
  • 231400Z 22005KT 150V280 9999 FEW035 22/13 Q1016 NOSIG
  • 231330Z 24006KT 210V300 9999 FEW030 22/13 Q1016 NOSIG
  • 231300Z 22006KT 140V260 9999 FEW030 22/14 Q1016 NOSIG

TAF TAF LDPL
Valide du 23 à 18h jusqu'au 24 à 18h UTC


231725Z 2318/2418 06004KT CAVOK TX22/2412Z TN12/2404Z
PROB30
TEMPO 2321/2406 30015KT -TSRA FEW050CB
BECMG 2409/2411 27008KT
BECMG 2416/2418 30004KT



MET'MAP, la Météo Aéronautique d'un coup d'oeil ! - Copyright ORBIFLY Décembre 2007 - Disclaimer

ORBIFLY MET'MAP TEAM :

Programmation & Développement : Alexandra Zaïnal
Sur une idée originale de : Baudouin d'Aumeries
Soutien technique & logistique : Manuel Goepfert
Assistance : Marc-Olivier Méhu




SOURCES & CREDITS :

   NOAA